Lake Station, IN

2:48 PM CDT on June 03, 2015 (GMT -0500)
Lake Dombey | | Change Station
CLOSE
Current Station
Personal Weather Station
Location: Portage, IN
Elevation: 640 ft
Nearby Weather Stations
Active Advisory: Flood Warning

Elev 640 ft 41.58 °N, 87.21 °W | Updated 3 seconds ago

Partly Cloudy
Partly Cloudy
82.1 °F
Feels Like 83 °F
N
3.4
Wind Variable Wind from SE
Gusts 3.4 mph

Today
High -- | Low -- °F
--% Chance of Precip.
Yesterday
High -- | Low -- °F
Precip. -- in
5:16 AM 8:18 PM
Full, 98% visible
Pressure 30.04 in
Visibility 15.0 miles
Clouds Scattered Clouds 20000 ft
Heat Index 83 °F
Dew Point 62 °F
Humidity 51%
Rainfall 0.00 in
Snow Depth Not available.
UV 9 out of 12
Pollen 6.90 out of 12
Air Quality Not available.
Flu Activity No Activity
METAR KGYY 031845Z 15008KT 15SM SCT200 24/11 A3004

More Conditions Fewer Conditions

Pressure 30.04 in
Visibility 15.0 miles
Clouds Scattered Clouds 20000 ft
Heat Index 83 °F
Dew Point 62 °F
Humidity 51%
Rainfall 0.00 in
Snow Depth Not available.
UV 9 out of 12
Pollen 6.90 out of 12
Air Quality Not available.
Flu Activity No Activity
METAR KGYY 031845Z 15008KT 15SM SCT200 24/11 A3004

More Conditions Fewer Conditions

10-Day Weather Forecast

×

Almanac

Astronomy

Jun. 03, 2015 Rise Set
Actual Time
Civil Twilight
Nautical Twilight
Astronomical Twilight
Moon
Length of Visible Light
Length of Day
Tomorrow will be .
, % of the Moon is Illuminated

Today's Extremes

State Highs State Lows

Community

WunderPhotos

Upload Photos

1,826,274 photos uploaded!

WunderBlogs® & News

Nearby

Air Quality

  Air Quality AQ Index Pollutant
Not available.

Snow Depth

Station Depth Elevation

Earthquake Activity

City Distance Mag. Time & Date
Minimum magnitude displayed is 2.5.

Coastal Water Temperatures

Place Temperature

Stations

Nearby Weather Stations

Station Location Temp. Windchill Dew Point Humidity Wind Precip. Elev Updated Type
                   
Flood Warning
Statement as of 8:48 AM CDT on June 03, 2015

The Flood Warning continues for
the Kankakee River at Shelby.
* Until Sunday afternoon.
* At 745 am Wednesday the stage was 9.8 feet.
* Flood stage is 9.0 feet.
* Minor flooding is occurring and minor flooding is forecast.
* Forecast... the river will rise to 9.9 feet this afternoon.
The river will fall below flood stage Sunday morning.
* Impact... at 10.0 feet... flooding affects County and local roads.
Wildwood Estates and Sumava Resorts begin to experience some
flooding.


Lat... Lon 4127 8727 4121 8756 4111 8753 4118 8722